Time;durP1;ratioP1;P1;durP2;ratioP2;P2;SDS_P1;SDS_P2;PMS_P1;PMS_P2;Temp;Humidity;BMP_temperature;BMP_pressure;BME280_temperature;BME280_humidity;BME280_pressure;Samples;Min_cycle;Max_cycle;Signal;HPM_P1;HPM_P2
2023/03/15 00:00:11;;;;;;;7.50;1.30;;;3.40;99.90;;;;;;5098707;28;20028;-68
2023/03/15 00:02:38;;;;;;;6.88;1.25;;;3.20;99.90;;;;;;5111303;28;20031;-69
2023/03/15 00:05:04;;;;;;;8.40;1.42;;;3.30;99.90;;;;;;5094465;28;20158;-68
2023/03/15 00:07:30;;;;;;;6.55;1.60;;;3.40;99.90;;;;;;5085723;28;20526;-68
2023/03/15 00:09:56;;;;;;;7.85;1.20;;;3.20;99.90;;;;;;5112765;28;20032;-68
2023/03/15 00:12:24;;;;;;;8.15;1.17;;;3.20;99.90;;;;;;5108675;28;20492;-68
2023/03/15 00:14:50;;;;;;;10.70;2.00;;;3.20;99.90;;;;;;5091608;28;20044;-68
2023/03/15 00:17:16;;;;;;;8.77;1.75;;;3.20;99.90;;;;;;5099289;28;20047;-68
2023/03/15 00:19:42;;;;;;;6.15;1.40;;;3.10;99.90;;;;;;5110221;28;20124;-68
2023/03/15 00:22:07;;;;;;;5.55;1.50;;;3.10;99.90;;;;;;5112032;28;20118;-69
2023/03/15 00:24:33;;;;;;;9.15;1.45;;;3.10;99.90;;;;;;5095046;28;20123;-69
2023/03/15 00:26:58;;;;;;;7.80;1.38;;;3.20;99.90;;;;;;5120269;28;20036;-69
2023/03/15 00:29:24;;;;;;;5.70;1.15;;;3.20;99.90;;;;;;5108393;28;20036;-68
2023/03/15 00:31:50;;;;;;;8.05;1.27;;;3.20;99.90;;;;;;5110450;28;20383;-69
2023/03/15 00:34:17;;;;;;;5.32;1.15;;;3.10;99.90;;;;;;5110940;28;20499;-68
2023/03/15 00:36:43;;;;;;;9.50;1.73;;;3.10;99.90;;;;;;5108095;28;20039;-68
2023/03/15 00:39:09;;;;;;;7.40;1.15;;;3.10;99.90;;;;;;5091779;28;20063;-69
2023/03/15 00:41:35;;;;;;;6.80;1.55;;;3.10;99.90;;;;;;5108421;28;20032;-68
2023/03/15 00:44:02;;;;;;;5.85;1.15;;;3.10;99.90;;;;;;5108345;28;20040;-68
2023/03/15 00:46:28;;;;;;;11.90;2.08;;;3.10;99.90;;;;;;5135890;27;20039;-68
2023/03/15 00:48:54;;;;;;;8.13;1.35;;;3.10;99.90;;;;;;5076862;28;20119;-69
2023/03/15 00:51:21;;;;;;;6.90;1.23;;;3.00;99.90;;;;;;5093267;28;20052;-69
2023/03/15 00:53:48;;;;;;;5.57;1.40;;;3.00;99.90;;;;;;5113877;28;20122;-68
2023/03/15 00:56:16;;;;;;;7.15;1.50;;;3.00;99.90;;;;;;5115300;28;20047;-68
2023/03/15 00:58:43;;;;;;;5.90;1.50;;;3.00;99.90;;;;;;5130755;27;20036;-68
2023/03/15 01:01:17;;;;;;;6.30;1.20;;;3.00;99.90;;;;;;5100952;27;20043;-68
2023/03/15 01:03:44;;;;;;;7.95;1.15;;;3.00;99.90;;;;;;5106686;28;20036;-69
2023/03/15 01:06:15;;;;;;;4.70;1.08;;;3.00;99.90;;;;;;5112617;28;20035;-69
2023/03/15 01:08:41;;;;;;;10.13;1.60;;;3.00;99.90;;;;;;5079656;28;20059;-68
2023/03/15 01:11:09;;;;;;;10.57;1.38;;;2.90;99.90;;;;;;5094763;28;20032;-68
2023/03/15 01:13:35;;;;;;;8.85;1.80;;;2.90;99.90;;;;;;5077706;28;20089;-69
2023/03/15 01:16:01;;;;;;;10.23;1.88;;;2.90;99.90;;;;;;5094108;28;20036;-69
2023/03/15 01:18:27;;;;;;;9.20;1.80;;;2.90;99.90;;;;;;5088241;28;20411;-69
2023/03/15 01:20:53;;;;;;;6.90;1.50;;;2.80;99.90;;;;;;5113926;28;20061;-68
2023/03/15 01:23:19;;;;;;;7.30;1.10;;;2.80;99.90;;;;;;5093823;28;20039;-69
2023/03/15 01:25:45;;;;;;;5.43;1.13;;;2.90;99.90;;;;;;5094390;28;20047;-69
2023/03/15 01:28:10;;;;;;;5.40;1.00;;;2.80;99.90;;;;;;5130155;27;20067;-68
2023/03/15 01:30:36;;;;;;;8.57;0.95;;;2.80;99.90;;;;;;5094354;28;20035;-68
2023/03/15 01:33:01;;;;;;;11.15;1.98;;;2.80;99.90;;;;;;5077699;28;20043;-69
2023/03/15 01:35:27;;;;;;;8.10;1.15;;;2.70;99.90;;;;;;5130774;27;20114;-68
2023/03/15 01:37:52;;;;;;;5.57;1.02;;;2.70;99.90;;;;;;5102014;27;20047;-69
2023/03/15 01:40:18;;;;;;;4.78;0.82;;;2.80;99.90;;;;;;5114865;28;20036;-69
2023/03/15 01:43:13;;;;;;;4.38;0.80;;;2.90;99.90;;;;;;5113277;28;20100;-69
2023/03/15 01:45:58;;;;;;;9.63;1.40;;;2.90;99.90;;;;;;5097392;28;20039;-68
2023/03/15 01:48:30;;;;;;;10.98;1.58;;;2.90;99.90;;;;;;5133358;27;20055;-69
2023/03/15 01:50:56;;;;;;;5.15;1.20;;;2.80;99.90;;;;;;5093876;28;20063;-68
2023/03/15 01:53:23;;;;;;;7.53;1.00;;;2.80;99.90;;;;;;5077037;28;20075;-68
2023/03/15 01:55:51;;;;;;;8.05;1.40;;;2.80;99.90;;;;;;5116491;27;20035;-69
2023/03/15 01:58:20;;;;;;;7.65;1.25;;;2.90;99.90;;;;;;5096064;28;20032;-68
2023/03/15 02:00:45;;;;;;;5.53;1.05;;;2.90;99.90;;;;;;5095430;28;20118;-69
2023/03/15 02:03:17;;;;;;;4.40;0.90;;;2.80;99.90;;;;;;5113732;28;20123;-69
2023/03/15 02:05:46;;;;;;;7.28;1.00;;;2.80;99.90;;;;;;5107014;28;20118;-69
2023/03/15 02:08:15;;;;;;;5.70;0.80;;;2.70;99.90;;;;;;5102290;28;20041;-68
2023/03/15 02:10:48;;;;;;;7.15;1.10;;;2.70;99.90;;;;;;5097265;28;20047;-69
2023/03/15 02:13:18;;;;;;;5.43;1.00;;;2.70;99.90;;;;;;5096884;28;20092;-69
2023/03/15 02:15:45;;;;;;;8.10;1.30;;;2.60;99.90;;;;;;5090612;28;20082;-68
2023/03/15 02:18:15;;;;;;;6.35;0.95;;;2.60;99.90;;;;;;5093455;28;20071;-69
2023/03/15 02:21:02;;;;;;;5.70;0.90;;;2.60;99.90;;;;;;5076801;28;20446;-68
2023/03/15 02:23:28;;;;;;;6.88;1.08;;;2.50;99.90;;;;;;5093503;28;20134;-69
2023/03/15 02:26:28;;;;;;;7.53;1.30;;;2.50;99.90;;;;;;5076269;28;20131;-69
2023/03/15 02:28:54;;;;;;;2.75;1.08;;;2.50;99.90;;;;;;5110259;28;20032;-69
2023/03/15 02:31:21;;;;;;;5.18;1.00;;;2.50;99.90;;;;;;5101829;28;20043;-69
2023/03/15 02:33:52;;;;;;;6.57;0.95;;;2.50;99.90;;;;;;5111972;28;20067;-69
2023/03/15 02:36:27;;;;;;;4.65;0.82;;;2.50;99.90;;;;;;5095444;28;20120;-68
2023/03/15 02:38:54;;;;;;;5.30;0.93;;;2.40;99.90;;;;;;5148096;27;20054;-69
2023/03/15 02:41:28;;;;;;;9.10;1.40;;;2.40;99.90;;;;;;5147825;27;20050;-68
2023/03/15 02:44:07;;;;;;;4.25;1.00;;;2.40;99.90;;;;;;5113537;28;20036;-68
2023/03/15 02:46:34;;;;;;;6.65;0.90;;;2.40;99.90;;;;;;5083645;28;20066;-68
2023/03/15 02:49:00;;;;;;;8.80;1.20;;;2.30;99.90;;;;;;5076009;28;20051;-68
2023/03/15 02:51:28;;;;;;;7.72;1.13;;;2.30;99.90;;;;;;5075826;28;20060;-68
2023/03/15 02:53:54;;;;;;;8.43;0.88;;;2.30;99.90;;;;;;5093070;28;20138;-68
2023/03/15 02:56:19;;;;;;;5.00;1.42;;;2.30;99.90;;;;;;5109651;27;20127;-68
2023/03/15 02:58:45;;;;;;;9.13;1.10;;;2.30;99.90;;;;;;5126821;27;20518;-68
2023/03/15 03:01:15;;;;;;;6.05;1.00;;;2.30;99.90;;;;;;5109530;28;20043;-68
2023/03/15 03:03:42;;;;;;;4.95;1.00;;;2.30;99.90;;;;;;5082222;28;20396;-68
2023/03/15 03:06:09;;;;;;;6.55;1.80;;;2.20;99.90;;;;;;5085742;28;20043;-68
2023/03/15 03:08:35;;;;;;;6.85;1.20;;;2.30;99.90;;;;;;5121160;27;20054;-69
2023/03/15 03:11:01;;;;;;;7.38;1.10;;;2.30;99.90;;;;;;5112877;28;20126;-68
2023/03/15 03:13:27;;;;;;;2.95;1.00;;;2.20;99.90;;;;;;5112693;28;20090;-68
2023/03/15 03:15:57;;;;;;;4.80;0.82;;;2.20;99.90;;;;;;5102660;28;20433;-68
2023/03/15 03:18:34;;;;;;;5.00;1.10;;;2.30;99.90;;;;;;5096689;28;20031;-69
2023/03/15 03:21:02;;;;;;;6.93;1.05;;;2.30;99.90;;;;;;5113103;28;20040;-68
2023/03/15 03:23:29;;;;;;;4.72;0.93;;;2.20;99.90;;;;;;5146936;27;20495;-68
2023/03/15 03:25:56;;;;;;;3.70;1.00;;;2.10;99.90;;;;;;5102699;28;20088;-68
2023/03/15 03:28:24;;;;;;;5.40;1.00;;;2.20;99.90;;;;;;5075419;28;20542;-68
2023/03/15 03:30:51;;;;;;;4.68;1.08;;;2.10;99.90;;;;;;5115488;27;20043;-68
2023/03/15 03:33:16;;;;;;;8.23;1.20;;;2.10;99.90;;;;;;5095863;28;20146;-68
2023/03/15 03:35:42;;;;;;;4.63;0.80;;;2.00;99.90;;;;;;5119205;27;20123;-68
2023/03/15 03:38:09;;;;;;;5.90;0.95;;;2.00;99.90;;;;;;5109346;28;20036;-68
2023/03/15 03:40:35;;;;;;;5.57;1.02;;;2.00;99.90;;;;;;5111564;28;20053;-68
2023/03/15 03:43:01;;;;;;;6.10;0.98;;;1.90;99.90;;;;;;5111402;28;20118;-68
2023/03/15 03:45:26;;;;;;;7.65;1.35;;;1.90;99.90;;;;;;5110950;28;20077;-68
2023/03/15 03:47:52;;;;;;;5.85;0.90;;;1.90;99.90;;;;;;5147156;27;20100;-68
2023/03/15 03:50:17;;;;;;;7.93;1.10;;;1.90;99.90;;;;;;5094323;28;20130;-68
2023/03/15 03:52:43;;;;;;;5.20;1.00;;;1.90;99.90;;;;;;5112322;28;20047;-69
2023/03/15 03:55:12;;;;;;;3.97;0.98;;;1.90;99.90;;;;;;5090736;28;20064;-68
2023/03/15 03:57:41;;;;;;;5.60;0.80;;;1.80;99.90;;;;;;5075048;28;20123;-68
2023/03/15 04:00:10;;;;;;;5.38;1.20;;;1.90;99.90;;;;;;5091592;28;20541;-68
2023/03/15 04:02:36;;;;;;;3.58;0.88;;;1.80;99.90;;;;;;5093877;28;20547;-69
2023/03/15 04:05:02;;;;;;;5.45;1.23;;;1.80;99.90;;;;;;5137654;27;20044;-68
2023/03/15 04:07:27;;;;;;;6.32;1.00;;;1.80;99.90;;;;;;5134265;27;20051;-68
2023/03/15 04:09:53;;;;;;;6.10;1.00;;;1.80;99.90;;;;;;5084095;28;20494;-68
2023/03/15 04:12:19;;;;;;;6.53;1.10;;;1.80;99.90;;;;;;5106206;28;20106;-69
2023/03/15 04:14:44;;;;;;;5.80;1.15;;;1.80;99.90;;;;;;5108340;28;20047;-68
2023/03/15 04:17:10;;;;;;;3.17;0.90;;;1.70;99.90;;;;;;5100217;28;20464;-69
2023/03/15 04:19:36;;;;;;;4.50;0.90;;;1.70;99.90;;;;;;5112077;28;20038;-68
2023/03/15 04:22:05;;;;;;;5.03;0.95;;;1.70;99.90;;;;;;5089313;28;20044;-68
2023/03/15 04:24:35;;;;;;;6.97;1.02;;;1.70;99.90;;;;;;5108673;28;20036;-69
2023/03/15 04:27:01;;;;;;;6.25;1.08;;;1.70;99.90;;;;;;5101864;28;20039;-68
2023/03/15 04:29:27;;;;;;;6.05;1.10;;;1.70;99.90;;;;;;5114168;28;20123;-68
2023/03/15 04:31:53;;;;;;;5.95;0.90;;;1.70;99.90;;;;;;5111701;28;20043;-69
2023/03/15 04:34:18;;;;;;;4.30;0.95;;;1.60;99.90;;;;;;5133045;27;20091;-68
2023/03/15 04:36:44;;;;;;;11.70;1.80;;;1.60;99.90;;;;;;5114614;28;20384;-69
2023/03/15 04:39:11;;;;;;;4.88;1.00;;;1.60;99.90;;;;;;5125787;27;20028;-68
2023/03/15 04:41:38;;;;;;;5.50;1.30;;;1.60;99.90;;;;;;5118012;27;20043;-69
2023/03/15 04:44:04;;;;;;;4.15;1.02;;;1.60;99.90;;;;;;5090128;28;20119;-68
2023/03/15 04:46:31;;;;;;;6.53;1.90;;;1.60;99.90;;;;;;5114844;27;20072;-69
2023/03/15 04:48:57;;;;;;;3.88;2.03;;;1.60;99.90;;;;;;5090310;28;20097;-69
2023/03/15 04:51:23;;;;;;;5.82;1.90;;;1.60;99.90;;;;;;5080482;28;20408;-69
2023/03/15 04:53:49;;;;;;;4.88;1.50;;;1.60;99.90;;;;;;5126659;27;20043;-68
2023/03/15 04:56:15;;;;;;;3.50;1.25;;;1.70;99.90;;;;;;5110799;28;20035;-68
2023/03/15 04:58:41;;;;;;;3.75;1.08;;;1.70;99.90;;;;;;5114430;28;20131;-68
2023/03/15 05:01:06;;;;;;;5.35;1.58;;;1.70;99.90;;;;;;5113345;28;20093;-68
2023/03/15 05:03:32;;;;;;;2.97;1.20;;;1.70;99.90;;;;;;5099824;28;20036;-68
2023/03/15 05:05:59;;;;;;;3.90;1.20;;;1.70;99.90;;;;;;5080481;28;20122;-69
2023/03/15 05:08:25;;;;;;;3.92;1.50;;;1.60;99.90;;;;;;5088700;28;20165;-69
2023/03/15 05:10:50;;;;;;;5.15;1.38;;;1.50;99.90;;;;;;5132264;27;20040;-68
2023/03/15 05:13:17;;;;;;;7.90;1.55;;;1.30;99.90;;;;;;5094664;28;20082;-69
2023/03/15 05:15:43;;;;;;;4.70;1.00;;;1.20;99.90;;;;;;5091844;28;20442;-69
2023/03/15 05:18:08;;;;;;;5.30;1.02;;;1.30;99.90;;;;;;5124752;27;20035;-69
2023/03/15 05:20:34;;;;;;;5.57;1.08;;;1.40;99.90;;;;;;5114055;28;20077;-68
2023/03/15 05:23:00;;;;;;;3.75;0.98;;;1.40;99.90;;;;;;5097795;28;20511;-68
2023/03/15 05:25:25;;;;;;;5.72;1.10;;;1.40;99.90;;;;;;5132466;27;20440;-68
2023/03/15 05:27:51;;;;;;;5.95;1.92;;;1.50;99.90;;;;;;5090234;28;20484;-68
2023/03/15 05:30:17;;;;;;;6.10;1.40;;;1.50;99.90;;;;;;5106877;27;20385;-68
2023/03/15 05:32:43;;;;;;;10.05;2.15;;;1.50;99.90;;;;;;5147254;27;20043;-69
2023/03/15 05:35:10;;;;;;;6.18;1.25;;;1.50;99.90;;;;;;5112938;28;20074;-69
2023/03/15 05:37:36;;;;;;;7.05;1.08;;;1.50;99.90;;;;;;5131269;27;20032;-68
2023/03/15 05:40:06;;;;;;;4.85;1.20;;;1.50;99.90;;;;;;5078499;28;20396;-68
2023/03/15 05:42:33;;;;;;;6.75;1.60;;;1.60;99.90;;;;;;5147150;27;20101;-69
2023/03/15 05:44:58;;;;;;;4.75;1.17;;;1.60;99.90;;;;;;5113239;28;20032;-68
2023/03/15 05:47:24;;;;;;;4.20;0.95;;;1.60;99.90;;;;;;5120662;27;20046;-69
2023/03/15 05:49:49;;;;;;;6.18;1.00;;;1.70;99.90;;;;;;5133801;27;20048;-68
2023/03/15 05:52:15;;;;;;;9.32;1.30;;;1.60;99.90;;;;;;5080768;28;20483;-68
2023/03/15 05:54:41;;;;;;;7.25;1.17;;;1.70;99.90;;;;;;5093759;28;20036;-68
2023/03/15 05:57:07;;;;;;;7.63;1.20;;;1.50;99.90;;;;;;5083546;28;20560;-68
2023/03/15 05:59:33;;;;;;;6.57;1.40;;;1.50;99.90;;;;;;5129340;27;20085;-68
2023/03/15 06:01:58;;;;;;;5.45;0.95;;;1.40;99.90;;;;;;5110663;28;20031;-68
2023/03/15 06:04:24;;;;;;;5.07;0.93;;;1.40;99.90;;;;;;5103512;28;20123;-68
2023/03/15 06:06:51;;;;;;;3.88;1.02;;;1.40;99.90;;;;;;5111385;28;20137;-68
2023/03/15 06:09:16;;;;;;;6.25;1.02;;;1.40;99.90;;;;;;5102951;28;20479;-68
2023/03/15 06:11:42;;;;;;;10.10;1.05;;;1.30;99.90;;;;;;5135261;27;20092;-68
2023/03/15 06:14:07;;;;;;;6.68;1.08;;;1.30;99.90;;;;;;5114637;27;20032;-68
2023/03/15 06:16:33;;;;;;;5.78;1.02;;;1.30;99.90;;;;;;5103280;28;20039;-69
2023/03/15 06:18:59;;;;;;;6.78;1.63;;;1.30;99.90;;;;;;5101761;28;20040;-69
2023/03/15 06:21:24;;;;;;;5.50;1.20;;;1.30;99.90;;;;;;5108818;28;20392;-69
2023/03/15 06:23:50;;;;;;;5.95;1.10;;;1.30;99.90;;;;;;5110294;28;20036;-68
2023/03/15 06:26:17;;;;;;;5.00;1.10;;;1.40;99.90;;;;;;5144905;27;20143;-69
2023/03/15 06:28:43;;;;;;;7.28;1.42;;;1.40;99.90;;;;;;5111599;28;20088;-68
2023/03/15 06:31:11;;;;;;;5.45;1.00;;;1.40;99.90;;;;;;5110566;28;20039;-69
2023/03/15 06:33:37;;;;;;;8.38;1.17;;;1.40;99.90;;;;;;5103103;28;20066;-69
2023/03/15 06:36:03;;;;;;;7.47;1.15;;;1.40;99.90;;;;;;5121020;27;20047;-68
2023/03/15 06:38:30;;;;;;;4.80;1.00;;;1.40;99.90;;;;;;5112660;28;20040;-71
2023/03/15 06:40:57;;;;;;;11.75;1.25;;;1.50;99.90;;;;;;5092730;28;20044;-70
2023/03/15 06:43:23;;;;;;;7.13;1.10;;;1.70;99.90;;;;;;5102746;28;20041;-70
2023/03/15 06:45:49;;;;;;;5.72;1.05;;;1.80;99.90;;;;;;5092377;27;20099;-69
2023/03/15 06:48:16;;;;;;;7.53;1.20;;;1.90;99.90;;;;;;5086287;28;20139;-69
2023/03/15 06:50:41;;;;;;;8.60;1.42;;;2.00;99.90;;;;;;5088690;28;20059;-68
2023/03/15 06:53:07;;;;;;;5.68;1.00;;;2.00;99.90;;;;;;5110321;27;20043;-69
2023/03/15 06:55:33;;;;;;;7.53;1.05;;;2.00;99.90;;;;;;5106207;28;20491;-68
2023/03/15 06:57:59;;;;;;;10.43;1.30;;;2.00;99.90;;;;;;5083076;28;20044;-68
2023/03/15 07:00:25;;;;;;;7.40;1.13;;;1.90;99.90;;;;;;5108263;28;20046;-68
2023/03/15 07:02:50;;;;;;;4.97;1.10;;;1.90;99.90;;;;;;5096987;28;20058;-69
2023/03/15 07:05:16;;;;;;;6.05;1.15;;;2.00;99.90;;;;;;5110478;27;20028;-68
2023/03/15 07:07:41;;;;;;;6.95;1.30;;;2.00;99.90;;;;;;5136652;27;20088;-68
2023/03/15 07:10:08;;;;;;;5.97;1.27;;;2.00;99.90;;;;;;5129080;27;20043;-68
2023/03/15 07:12:33;;;;;;;5.22;1.02;;;2.00;99.90;;;;;;5136151;27;20391;-68
2023/03/15 07:14:59;;;;;;;8.02;1.27;;;2.00;99.90;;;;;;5109668;28;20047;-68
2023/03/15 07:17:24;;;;;;;6.03;1.40;;;2.00;99.90;;;;;;5095753;28;20047;-69
2023/03/15 07:19:50;;;;;;;6.88;1.02;;;2.00;99.90;;;;;;5121497;27;20047;-68
2023/03/15 07:22:16;;;;;;;7.47;1.15;;;2.10;99.90;;;;;;5118237;27;20034;-68
2023/03/15 07:24:42;;;;;;;7.32;1.77;;;2.10;99.90;;;;;;5139359;27;20126;-69
2023/03/15 07:27:11;;;;;;;3.03;0.90;;;2.10;99.90;;;;;;5102282;28;20036;-69
2023/03/15 07:29:37;;;;;;;3.58;1.00;;;2.30;99.90;;;;;;5106051;28;20066;-72
2023/03/15 07:32:02;;;;;;;6.13;1.10;;;2.30;99.90;;;;;;5142431;27;20061;-68
2023/03/15 07:34:28;;;;;;;5.90;1.60;;;2.50;99.90;;;;;;5095494;28;20407;-68
2023/03/15 07:36:53;;;;;;;9.23;1.13;;;2.50;99.90;;;;;;5129490;27;20096;-69
2023/03/15 07:39:19;;;;;;;3.85;1.00;;;2.50;99.90;;;;;;5112654;28;20051;-68
2023/03/15 07:41:45;;;;;;;6.75;1.13;;;2.60;99.90;;;;;;5111381;28;20051;-68
2023/03/15 07:44:10;;;;;;;6.65;1.08;;;2.60;99.90;;;;;;5096059;28;20550;-68
2023/03/15 07:46:37;;;;;;;5.30;1.00;;;2.70;99.90;;;;;;5075436;28;20047;-69
2023/03/15 07:49:03;;;;;;;6.63;1.42;;;2.80;99.90;;;;;;5092266;28;20391;-68
2023/03/15 07:51:28;;;;;;;6.50;1.15;;;2.90;99.90;;;;;;5126079;28;20063;-68
2023/03/15 07:53:54;;;;;;;4.63;1.20;;;3.00;99.90;;;;;;5092083;28;20515;-68
2023/03/15 07:56:20;;;;;;;7.93;2.08;;;3.20;99.90;;;;;;5075209;28;20470;-69
2023/03/15 07:58:45;;;;;;;7.50;1.55;;;3.20;99.90;;;;;;5109094;28;20058;-69
2023/03/15 08:01:11;;;;;;;6.13;1.83;;;3.20;99.90;;;;;;5092191;28;20044;-69
2023/03/15 08:03:36;;;;;;;5.65;1.00;;;3.20;99.90;;;;;;5094113;28;20040;-69
2023/03/15 08:06:02;;;;;;;7.28;1.20;;;3.40;99.90;;;;;;5096083;28;20040;-68
2023/03/15 08:08:28;;;;;;;12.73;2.30;;;3.40;99.90;;;;;;5079024;28;20126;-68
2023/03/15 08:10:54;;;;;;;8.52;1.67;;;3.40;99.90;;;;;;5085870;27;20043;-68
2023/03/15 08:13:20;;;;;;;8.35;1.33;;;3.50;99.90;;;;;;5099083;28;20054;-68
2023/03/15 08:15:46;;;;;;;8.88;1.75;;;3.50;99.90;;;;;;5099260;28;20043;-69
2023/03/15 08:18:12;;;;;;;12.32;1.90;;;3.60;99.90;;;;;;5116081;28;20039;-69
2023/03/15 08:20:38;;;;;;;8.65;1.40;;;3.60;99.90;;;;;;5098373;28;20132;-68
2023/03/15 08:23:05;;;;;;;8.27;1.40;;;3.80;99.90;;;;;;5099412;28;20067;-69
2023/03/15 08:25:31;;;;;;;7.13;1.42;;;3.90;99.90;;;;;;5116095;28;20047;-69
2023/03/15 08:27:56;;;;;;;6.05;1.08;;;4.00;99.90;;;;;;5099302;28;20044;-69
2023/03/15 08:30:23;;;;;;;9.48;1.70;;;4.00;99.90;;;;;;5115901;28;20047;-69
2023/03/15 08:32:51;;;;;;;12.00;1.90;;;4.20;99.90;;;;;;5115951;28;20046;-69
2023/03/15 08:35:18;;;;;;;9.48;1.48;;;4.30;99.90;;;;;;5115835;28;20127;-69
2023/03/15 08:37:46;;;;;;;7.72;1.52;;;4.40;99.90;;;;;;5116119;28;20377;-69
2023/03/15 08:40:13;;;;;;;11.05;1.60;;;4.40;99.90;;;;;;5116081;28;20028;-68
2023/03/15 08:42:39;;;;;;;8.60;1.60;;;4.50;99.90;;;;;;5096638;28;20043;-68
2023/03/15 08:45:06;;;;;;;8.60;1.48;;;4.50;99.90;;;;;;5098727;28;20123;-69
2023/03/15 08:47:36;;;;;;;5.43;1.25;;;4.60;99.90;;;;;;5115602;28;20085;-69
2023/03/15 08:50:07;;;;;;;8.40;1.40;;;4.70;99.90;;;;;;5115381;28;20048;-69
2023/03/15 08:52:33;;;;;;;7.32;1.88;;;4.70;99.90;;;;;;5150285;27;20126;-69
2023/03/15 08:54:58;;;;;;;10.13;1.65;;;4.70;99.90;;;;;;5115513;28;20090;-69
2023/03/15 08:57:24;;;;;;;5.68;1.17;;;4.80;99.90;;;;;;5115302;28;20844;-69
2023/03/15 08:59:54;;;;;;;7.90;1.30;;;4.80;99.90;;;;;;5115620;28;20408;-69
2023/03/15 09:02:21;;;;;;;9.82;1.60;;;4.90;99.90;;;;;;5115377;28;20419;-69
2023/03/15 09:04:47;;;;;;;8.43;1.40;;;4.90;99.90;;;;;;5098710;28;20391;-69
2023/03/15 09:07:14;;;;;;;6.65;1.75;;;5.00;99.90;;;;;;5115632;28;20051;-69
2023/03/15 09:09:40;;;;;;;6.72;1.00;;;5.10;99.90;;;;;;5115390;28;20509;-69
2023/03/15 09:12:06;;;;;;;7.00;1.23;;;5.10;99.90;;;;;;5114041;28;20126;-69
2023/03/15 09:14:31;;;;;;;6.78;1.42;;;5.20;99.90;;;;;;5114703;28;20040;-69
2023/03/15 09:16:57;;;;;;;8.15;1.55;;;5.30;99.90;;;;;;5098045;28;20499;-69
2023/03/15 09:19:22;;;;;;;8.48;1.10;;;5.50;99.90;;;;;;5114878;28;20105;-69
2023/03/15 09:21:48;;;;;;;6.47;1.20;;;5.70;99.90;;;;;;5114135;28;20035;-69
2023/03/15 09:24:14;;;;;;;6.47;1.10;;;5.60;99.90;;;;;;5114930;28;20458;-70
2023/03/15 09:26:39;;;;;;;9.02;1.08;;;5.80;99.90;;;;;;5097919;28;20061;-69
2023/03/15 09:29:06;;;;;;;8.45;1.55;;;5.90;99.90;;;;;;5098030;28;20044;-70
2023/03/15 09:31:32;;;;;;;6.43;1.55;;;5.90;99.90;;;;;;5114871;28;20525;-69
2023/03/15 09:33:58;;;;;;;5.65;1.20;;;6.00;99.90;;;;;;5115088;28;20047;-69
2023/03/15 09:36:24;;;;;;;10.65;2.17;;;6.00;99.90;;;;;;5114809;28;20130;-69
2023/03/15 09:38:49;;;;;;;7.15;1.02;;;6.10;99.90;;;;;;5114715;28;20040;-69
2023/03/15 09:41:29;;;;;;;6.32;1.10;;;6.20;99.90;;;;;;5096394;27;20080;-69
2023/03/15 09:44:08;;;;;;;6.80;1.13;;;6.40;99.90;;;;;;5097660;28;20118;-69
2023/03/15 09:47:10;;;;;;;9.88;2.15;;;6.40;99.90;;;;;;5131740;27;20040;-69
2023/03/15 09:49:43;;;;;;;6.95;1.20;;;6.40;99.90;;;;;;5131390;27;20071;-69
2023/03/15 09:52:12;;;;;;;6.47;1.55;;;6.50;99.90;;;;;;5131648;27;20078;-69
2023/03/15 09:55:03;;;;;;;5.03;1.02;;;6.50;99.90;;;;;;5131541;27;20082;-69
2023/03/15 09:57:36;;;;;;;6.28;1.38;;;6.70;99.90;;;;;;5114451;28;20557;-69
2023/03/15 10:00:06;;;;;;;7.85;1.30;;;6.60;99.90;;;;;;5131270;27;20071;-70
2023/03/15 10:02:32;;;;;;;9.23;1.42;;;6.60;99.90;;;;;;5097183;28;20043;-70
2023/03/15 10:05:03;;;;;;;6.45;1.10;;;6.60;99.90;;;;;;5114542;28;20400;-69
2023/03/15 10:07:28;;;;;;;8.38;1.15;;;6.60;99.90;;;;;;5114165;28;20503;-69
2023/03/15 10:09:57;;;;;;;5.50;1.10;;;6.80;99.90;;;;;;5114007;28;20036;-69
2023/03/15 10:12:28;;;;;;;4.60;0.90;;;6.80;99.90;;;;;;5112302;28;20514;-69
2023/03/15 10:15:16;;;;;;;5.18;0.90;;;7.10;99.90;;;;;;5113950;28;20043;-69
2023/03/15 10:17:51;;;;;;;7.10;1.15;;;7.10;99.90;;;;;;5096943;28;20039;-69
2023/03/15 10:20:40;;;;;;;4.32;0.80;;;7.10;99.90;;;;;;5113791;28;20553;-69
2023/03/15 10:23:12;;;;;;;5.80;0.90;;;7.10;99.90;;;;;;5096883;28;20046;-69
2023/03/15 10:25:38;;;;;;;12.15;1.90;;;7.10;99.90;;;;;;5127991;27;20032;-69
2023/03/15 10:28:21;;;;;;;7.13;1.20;;;7.10;99.90;;;;;;5076544;28;20077;-69
2023/03/15 10:30:48;;;;;;;10.10;1.30;;;7.20;99.90;;;;;;5076647;28;20044;-69
2023/03/15 10:33:30;;;;;;;5.85;1.38;;;7.30;99.90;;;;;;5076530;28;20040;-69
2023/03/15 10:35:56;;;;;;;;;;;7.10;99.90;;;;;;5127792;27;20051;-69
2023/03/15 10:38:24;;;;;;;4.82;0.85;;;7.20;99.90;;;;;;5093494;28;19916;-69
2023/03/15 10:40:55;;;;;;;10.02;1.38;;;7.30;99.90;;;;;;5092975;28;20044;-69
2023/03/15 10:43:31;;;;;;;5.25;1.17;;;7.50;99.90;;;;;;5093044;28;20496;-69
2023/03/15 10:46:04;;;;;;;7.00;1.25;;;7.60;99.90;;;;;;5076065;28;20047;-69
2023/03/15 10:48:32;;;;;;;4.00;0.90;;;7.70;99.90;;;;;;5093331;28;20493;-69
2023/03/15 10:51:27;;;;;;;4.80;1.15;;;7.60;99.90;;;;;;5075687;28;20058;-68
2023/03/15 10:54:16;;;;;;;4.60;1.10;;;7.70;99.90;;;;;;5092886;28;20048;-69
2023/03/15 10:57:16;;;;;;;5.82;1.50;;;7.90;99.90;;;;;;5112331;28;20048;-69
2023/03/15 11:00:16;;;;;;;8.40;1.50;;;7.90;99.90;;;;;;5069891;28;20121;-69
2023/03/15 11:02:59;;;;;;;8.60;1.30;;;8.00;99.90;;;;;;5095987;28;20034;-69
2023/03/15 11:05:30;;;;;;;9.10;1.40;;;8.20;99.90;;;;;;5107235;27;20484;-70
2023/03/15 11:07:58;;;;;;;9.65;1.80;;;8.10;99.90;;;;;;5122412;27;20071;-68
2023/03/15 11:10:32;;;;;;;9.13;1.15;;;8.00;99.90;;;;;;5094054;28;20043;-68
2023/03/15 11:13:11;;;;;;;4.90;1.00;;;7.90;99.90;;;;;;5113143;28;20510;-69
2023/03/15 11:15:38;;;;;;;5.50;1.27;;;7.70;99.90;;;;;;5135941;27;20043;-69
2023/03/15 11:18:04;;;;;;;7.22;1.02;;;7.70;99.90;;;;;;5109371;27;20036;-69
2023/03/15 11:20:39;;;;;;;11.40;2.30;;;7.70;99.90;;;;;;5109273;28;20399;-69
2023/03/15 11:23:16;;;;;;;9.60;1.50;;;7.60;99.90;;;;;;5092400;28;20039;-69
2023/03/15 11:25:41;;;;;;;8.18;1.20;;;7.60;99.90;;;;;;5076816;28;20492;-68
2023/03/15 11:28:17;;;;;;;6.35;1.38;;;7.60;99.90;;;;;;5108780;28;20046;-69
2023/03/15 11:30:44;;;;;;;6.55;1.13;;;7.70;99.90;;;;;;5097136;28;20043;-68
2023/03/15 11:33:34;;;;;;;6.43;1.20;;;7.60;99.90;;;;;;5087370;28;20058;-69
2023/03/15 11:36:04;;;;;;;6.35;1.27;;;7.80;99.90;;;;;;5092148;28;20045;-69
2023/03/15 11:38:33;;;;;;;8.20;1.25;;;8.00;99.90;;;;;;5119240;27;20040;-69
2023/03/15 11:41:08;;;;;;;6.75;1.50;;;8.00;99.90;;;;;;5095141;28;20364;-69
2023/03/15 11:43:46;;;;;;;6.65;1.00;;;8.10;99.90;;;;;;5110377;28;20070;-69
2023/03/15 11:46:23;;;;;;;7.45;1.02;;;8.20;99.90;;;;;;5095644;28;20040;-69
2023/03/15 11:49:02;;;;;;;5.95;1.05;;;8.10;99.90;;;;;;5106591;28;20556;-69
2023/03/15 11:51:33;;;;;;;8.75;1.10;;;8.10;99.90;;;;;;5134152;27;20117;-69
2023/03/15 11:54:05;;;;;;;6.72;1.25;;;8.10;99.90;;;;;;5100439;28;20039;-69
2023/03/15 11:56:43;;;;;;;4.95;1.00;;;8.20;99.90;;;;;;5124151;28;20051;-69
2023/03/15 11:59:11;;;;;;;6.18;1.15;;;8.20;99.90;;;;;;5115355;28;20044;-69
2023/03/15 12:01:44;;;;;;;8.88;1.23;;;8.20;99.90;;;;;;5082655;28;20032;-69
2023/03/15 12:04:36;;;;;;;5.47;1.13;;;7.90;99.90;;;;;;5109197;28;20377;-69
2023/03/15 12:07:05;;;;;;;8.07;1.10;;;8.00;99.90;;;;;;5113805;28;21161;-69
2023/03/15 12:09:30;;;;;;;6.65;1.33;;;7.90;99.90;;;;;;5112220;28;20039;-69
2023/03/15 12:11:59;;;;;;;8.68;1.33;;;7.90;99.90;;;;;;5095832;28;20407;-69
2023/03/15 12:14:31;;;;;;;6.22;1.02;;;8.00;99.90;;;;;;5097777;28;20109;-69
2023/03/15 12:17:22;;;;;;;7.28;1.30;;;8.00;99.90;;;;;;5092339;28;20036;-69
2023/03/15 12:20:19;;;;;;;9.57;1.42;;;8.10;99.90;;;;;;5096268;28;20498;-69
2023/03/15 12:23:03;;;;;;;7.05;1.17;;;7.90;99.90;;;;;;5079738;28;20043;-69
2023/03/15 12:25:45;;;;;;;11.20;1.60;;;7.90;99.90;;;;;;5141085;27;20048;-69
2023/03/15 12:28:21;;;;;;;5.30;1.15;;;7.90;99.90;;;;;;5099363;28;20039;-69
2023/03/15 12:30:55;;;;;;;4.03;0.93;;;8.10;99.90;;;;;;5078448;28;20408;-69
2023/03/15 12:33:22;;;;;;;6.00;0.98;;;8.10;99.90;;;;;;5116094;28;20506;-69
2023/03/15 12:35:48;;;;;;;4.93;1.17;;;8.00;99.90;;;;;;5092581;28;20129;-69
2023/03/15 12:38:17;;;;;;;6.95;1.15;;;8.10;99.90;;;;;;5127789;27;20093;-69
2023/03/15 12:40:57;;;;;;;4.50;1.00;;;8.10;99.90;;;;;;5091564;28;20044;-69
2023/03/15 12:43:42;;;;;;;5.40;0.90;;;8.20;99.90;;;;;;5074918;28;20044;-69
2023/03/15 12:46:42;;;;;;;7.63;1.17;;;8.30;99.90;;;;;;5087290;28;20097;-69
2023/03/15 12:49:26;;;;;;;3.90;1.00;;;8.40;99.90;;;;;;5092636;28;20093;-69
2023/03/15 12:52:10;;;;;;;6.00;0.85;;;8.20;99.90;;;;;;5111203;28;20097;-69
2023/03/15 12:54:44;;;;;;;7.60;1.75;;;8.30;99.90;;;;;;5082958;28;20448;-69
2023/03/15 12:57:18;;;;;;;8.32;1.80;;;8.40;99.90;;;;;;5110843;28;20047;-69
2023/03/15 12:59:53;;;;;;;4.38;1.02;;;8.50;99.90;;;;;;5097542;28;20036;-68
2023/03/15 13:02:35;;;;;;;9.77;1.25;;;8.50;99.90;;;;;;5094861;28;20036;-69
2023/03/15 13:05:28;;;;;;;7.97;1.10;;;8.50;99.90;;;;;;5102105;28;20040;-69
2023/03/15 13:08:08;;;;;;;6.53;0.98;;;8.50;99.90;;;;;;5097708;28;20047;-68